Wakefield, Nebraska
Current Conditions -  °F | °C
As of 3:55 PM on Thursday 27 Nov 2014 (Local Time) from KLCG Reporting Station
Clear Clear  
Wind Chill:   Ceiling: Unl
Heat Index: 20°   Visibility: 10mi
Dew Point:   Wind: 13mph
Humidity: 59%   Direction: 150°SSE
Pressure: 30.27"   Gusts: NA
Location:  42.27°N, 96.87°W
Report Text: KLCG 272155Z AUTO 15011KT 10SM CLR M06/M13 A3027 RMK AO2 T10651133
Loading
Personal Weather Stations






























Interactive Weather Map New forecast layout! Learn more

10-Day Weather Forecast

Advertisements
Track Severe Weather on mobile